Bishops Corner, Connecticut
Current Conditions -  °F | °C
As of 4:53 PM on Saturday 25 Oct 2014 (Local Time) from KMMK Reporting Station
Clear Clear  
Wind Chill: 65°   Ceiling: Unl
Heat Index: 65°   Visibility: 10mi
Dew Point: 40°   Wind: 10mph
Humidity: 40%   Direction: 270°W
Pressure: 29.63"   Gusts: NA
Location:  41.5812°N, 72.8697°W
Report Text: KMMK 252053Z AUTO 27009KT 10SM CLR 18/04 A2963 RMK AO2 SLP034 T01830044 56021 TSNO
Loading
Personal Weather Stations






























Interactive Weather Map
Tropical Storm Tracking
New forecast layout! Learn more

10-Day Weather Forecast

Advertisements
Track Severe Weather on mobile